createdAt,value
2022-08-26T00:00:31.869Z,6.27
2022-08-26T00:03:01.930Z,6.40
2022-08-26T00:05:30.975Z,5.97
2022-08-26T00:07:59.270Z,5.83
2022-08-26T00:10:28.927Z,5.30
2022-08-26T00:12:56.865Z,5.90
2022-08-26T00:15:26.121Z,7.00
2022-08-26T00:17:55.640Z,5.83
2022-08-26T00:20:28.160Z,6.20
2022-08-26T00:22:56.401Z,6.83
2022-08-26T00:25:24.656Z,6.33
2022-08-26T00:27:54.295Z,5.80
2022-08-26T00:30:26.990Z,5.67
2022-08-26T00:32:55.694Z,6.90
2022-08-26T00:35:25.040Z,6.40
2022-08-26T00:37:56.514Z,5.27
2022-08-26T00:40:28.466Z,5.90
2022-08-26T00:42:57.824Z,5.90
2022-08-26T00:45:25.964Z,6.63
2022-08-26T00:47:57.851Z,6.60
2022-08-26T00:50:30.132Z,5.50
2022-08-26T00:53:00.115Z,5.97
2022-08-26T00:55:37.863Z,6.60
2022-08-26T00:58:08.827Z,6.27
2022-08-26T01:00:36.884Z,9.50
2022-08-26T01:03:05.437Z,6.40
2022-08-26T01:05:35.647Z,7.20
2022-08-26T01:08:03.927Z,8.10
2022-08-26T01:10:32.514Z,6.27
2022-08-26T01:13:06.020Z,7.00
2022-08-26T01:15:43.864Z,6.83
2022-08-26T01:18:13.779Z,6.13
2022-08-26T01:20:49.322Z,7.30
2022-08-26T01:23:18.820Z,6.10
2022-08-26T01:25:55.139Z,6.40
2022-08-26T01:28:28.071Z,6.87
2022-08-26T01:30:58.722Z,6.67
2022-08-26T01:33:30.651Z,6.33
2022-08-26T01:36:09.233Z,6.17
2022-08-26T01:38:38.670Z,6.10
2022-08-26T01:41:19.574Z,6.13
2022-08-26T01:43:51.586Z,6.97
2022-08-26T01:46:20.725Z,7.00
2022-08-26T01:48:50.063Z,6.53
2022-08-26T01:51:25.178Z,6.77
2022-08-26T01:53:54.549Z,6.83
2022-08-26T01:56:24.124Z,6.73
2022-08-26T01:58:54.780Z,6.10
2022-08-26T02:01:28.976Z,6.63
2022-08-26T02:04:04.189Z,6.20
2022-08-26T02:06:32.760Z,6.70
2022-08-26T02:09:06.010Z,7.30
2022-08-26T02:11:34.354Z,6.67
2022-08-26T02:14:10.830Z,6.27
2022-08-26T02:16:42.915Z,7.03
2022-08-26T02:19:17.081Z,7.00
2022-08-26T02:21:51.186Z,6.13
2022-08-26T02:24:24.495Z,6.57
2022-08-26T02:26:55.848Z,7.07
2022-08-26T02:29:26.973Z,7.00
2022-08-26T02:31:56.367Z,7.27
2022-08-26T02:34:31.163Z,6.10
2022-08-26T02:37:01.199Z,7.83
2022-08-26T02:39:30.983Z,7.13
2022-08-26T02:42:00.139Z,7.57
2022-08-26T02:44:28.492Z,7.57
2022-08-26T02:46:56.731Z,7.47
2022-08-26T02:49:26.242Z,7.70
2022-08-26T02:51:54.461Z,6.80
2022-08-26T02:54:22.929Z,6.97
2022-08-26T02:56:52.541Z,7.40
2022-08-26T02:59:20.453Z,7.13
2022-08-26T03:01:52.798Z,6.70
2022-08-26T03:04:25.803Z,7.10
2022-08-26T03:06:55.407Z,6.63
2022-08-26T03:09:23.856Z,6.33
2022-08-26T03:11:55.269Z,6.23
2022-08-26T03:14:24.317Z,6.17
2022-08-26T03:16:53.985Z,6.83
2022-08-26T03:19:22.953Z,6.10
2022-08-26T03:21:50.973Z,6.97
2022-08-26T03:24:20.802Z,6.83
2022-08-26T03:26:52.062Z,7.30
2022-08-26T03:29:40.203Z,7.13
2022-08-26T03:32:08.308Z,6.80
2022-08-26T03:34:37.180Z,6.43
2022-08-26T03:37:06.712Z,7.20
2022-08-26T03:39:35.043Z,7.20
2022-08-26T03:42:02.977Z,7.20
2022-08-26T03:44:32.236Z,7.27
2022-08-26T03:47:00.579Z,6.53
2022-08-26T03:49:28.967Z,6.97
2022-08-26T03:51:57.070Z,7.33
2022-08-26T03:54:24.996Z,6.83
2022-08-26T03:56:52.966Z,7.30
2022-08-26T03:59:21.280Z,6.63
2022-08-26T04:01:50.606Z,7.13
2022-08-26T04:04:18.739Z,7.40
2022-08-26T04:06:51.116Z,6.90
2022-08-26T04:09:20.362Z,7.40
2022-08-26T04:11:50.585Z,7.47
2022-08-26T04:14:21.575Z,6.70
2022-08-26T04:16:51.222Z,7.37
2022-08-26T04:19:21.192Z,7.73
2022-08-26T04:21:53.158Z,7.07
2022-08-26T04:24:23.247Z,6.77
2022-08-26T04:26:51.257Z,7.10
2022-08-26T04:29:21.649Z,6.80
2022-08-26T04:31:55.220Z,6.50
2022-08-26T04:34:25.027Z,7.00
2022-08-26T04:36:57.617Z,6.53
2022-08-26T04:39:25.719Z,6.93
2022-08-26T04:41:56.003Z,7.27
2022-08-26T04:44:27.502Z,6.77
2022-08-26T04:46:58.378Z,7.80
2022-08-26T04:49:27.490Z,7.07
2022-08-26T04:51:55.933Z,7.03
2022-08-26T04:54:25.186Z,7.50
2022-08-26T04:56:53.840Z,8.00
2022-08-26T04:59:29.972Z,7.00
2022-08-26T05:02:01.534Z,8.20
2022-08-26T05:04:30.218Z,7.40
2022-08-26T05:07:02.435Z,7.33
2022-08-26T05:09:31.072Z,7.20
2022-08-26T05:11:59.042Z,7.00
2022-08-26T05:14:27.490Z,6.70
2022-08-26T05:16:55.679Z,6.63
2022-08-26T05:19:25.761Z,6.60
2022-08-26T05:21:55.983Z,6.80
2022-08-26T05:24:24.293Z,6.80
2022-08-26T05:26:52.270Z,6.20
2022-08-26T05:29:20.199Z,7.47
2022-08-26T05:31:51.041Z,7.37
2022-08-26T05:34:20.713Z,6.40
2022-08-26T05:36:50.499Z,7.57
2022-08-26T05:39:18.494Z,7.90
2022-08-26T05:41:46.516Z,7.80
2022-08-26T05:44:18.688Z,8.47
2022-08-26T05:46:47.114Z,8.17
2022-08-26T05:49:15.830Z,8.00
2022-08-26T05:51:46.308Z,6.97
2022-08-26T05:54:22.121Z,6.83
2022-08-26T05:56:51.031Z,7.60
2022-08-26T05:59:24.080Z,6.93
2022-08-26T06:01:53.212Z,7.63
2022-08-26T06:04:21.513Z,7.47
2022-08-26T06:06:50.807Z,7.63
2022-08-26T06:11:58.802Z,7.53
2022-08-26T06:14:31.017Z,7.47
2022-08-26T06:19:56.143Z,7.60
2022-08-26T06:22:46.736Z,7.60
2022-08-26T06:25:33.166Z,7.73
2022-08-26T06:28:02.474Z,7.30
2022-08-26T06:30:32.944Z,7.80
2022-08-26T06:33:01.627Z,6.93
2022-08-26T06:35:29.735Z,7.77
2022-08-26T06:38:02.857Z,6.97
2022-08-26T06:40:36.615Z,6.70
2022-08-26T06:43:05.986Z,7.20
2022-08-26T06:45:37.081Z,7.03
2022-08-26T06:48:05.513Z,7.13
2022-08-26T06:50:35.042Z,6.77
2022-08-26T06:53:03.467Z,7.07
2022-08-26T06:55:32.516Z,7.10
2022-08-26T06:58:01.990Z,6.80
2022-08-26T07:00:34.194Z,6.80
2022-08-26T07:03:02.311Z,7.80
2022-08-26T07:05:34.082Z,6.83
2022-08-26T07:08:03.706Z,7.20
2022-08-26T07:10:31.785Z,6.70
2022-08-26T07:12:59.783Z,6.10
2022-08-26T07:15:32.252Z,6.47
2022-08-26T07:18:02.619Z,6.40
2022-08-26T07:20:33.555Z,6.30
2022-08-26T07:23:01.519Z,6.40
2022-08-26T07:25:30.077Z,6.73
2022-08-26T07:27:58.080Z,6.23
2022-08-26T07:30:26.364Z,6.37
2022-08-26T07:32:57.396Z,5.93
2022-08-26T07:35:30.659Z,6.40
2022-08-26T07:37:58.649Z,5.73
2022-08-26T07:40:26.824Z,5.70
2022-08-26T07:42:54.878Z,5.23
2022-08-26T07:45:23.186Z,5.70
2022-08-26T07:47:51.529Z,5.77
2022-08-26T07:50:19.723Z,5.77
2022-08-26T07:52:49.513Z,5.10
2022-08-26T07:55:18.193Z,5.87
2022-08-26T07:57:46.746Z,5.70
2022-08-26T08:00:17.051Z,5.67
2022-08-26T08:02:47.514Z,5.60
2022-08-26T08:05:19.871Z,5.40
2022-08-26T08:07:53.524Z,5.50
2022-08-26T08:11:14.449Z,5.10
2022-08-26T08:13:42.516Z,4.93
2022-08-26T08:16:13.241Z,4.93
2022-08-26T08:18:41.222Z,4.87
2022-08-26T08:21:35.068Z,4.23
2022-08-26T08:24:03.131Z,4.80
2022-08-26T08:26:32.537Z,4.70
2022-08-26T08:29:00.449Z,5.50
2022-08-26T08:34:19.784Z,5.30
2022-08-26T08:36:50.342Z,5.90
2022-08-26T08:39:21.939Z,5.27
2022-08-26T08:42:10.841Z,7.10
2022-08-26T08:44:42.718Z,5.20
2022-08-26T08:47:19.817Z,5.70
2022-08-26T08:49:48.829Z,5.67
2022-08-26T08:52:28.949Z,5.97
2022-08-26T08:54:58.132Z,8.13
2022-08-26T08:57:36.065Z,6.10
2022-08-26T09:00:11.284Z,6.50
2022-08-26T09:02:44.067Z,11.00
2022-08-26T09:05:18.256Z,5.93
2022-08-26T09:07:50.339Z,7.80
2022-08-26T09:10:36.724Z,8.73
2022-08-26T09:13:13.642Z,5.60
2022-08-26T09:15:55.221Z,6.27
2022-08-26T09:18:42.795Z,5.70
2022-08-26T09:21:16.758Z,6.00
2022-08-26T09:23:49.693Z,7.43
2022-08-26T09:26:21.405Z,6.70
2022-08-26T09:28:56.769Z,7.00
2022-08-26T09:31:27.496Z,5.83
2022-08-26T09:34:09.183Z,6.73
2022-08-26T09:36:41.361Z,6.80
2022-08-26T09:39:27.786Z,6.70
2022-08-26T09:42:11.029Z,7.83
2022-08-26T09:44:57.475Z,6.60
2022-08-26T09:47:30.094Z,7.17
2022-08-26T09:50:09.678Z,8.43
2022-08-26T09:52:42.764Z,7.40
2022-08-26T09:55:15.978Z,8.47
2022-08-26T09:57:49.650Z,7.33
2022-08-26T10:00:31.049Z,7.10
2022-08-26T10:03:01.506Z,7.37
2022-08-26T10:05:42.220Z,7.43
2022-08-26T10:08:23.133Z,7.97
2022-08-26T10:10:53.124Z,8.40
2022-08-26T10:13:28.105Z,6.90
2022-08-26T10:16:06.693Z,7.43
2022-08-26T10:18:44.600Z,11.20
2022-08-26T10:21:17.895Z,6.83
2022-08-26T10:23:50.388Z,7.20
2022-08-26T10:26:26.315Z,6.70
2022-08-26T10:29:01.289Z,6.70
2022-08-26T10:31:38.289Z,9.10
2022-08-26T10:34:09.262Z,7.33
2022-08-26T10:37:14.654Z,14.27
2022-08-26T10:39:42.786Z,7.40
2022-08-26T10:42:17.393Z,7.43
2022-08-26T10:44:49.037Z,7.80
2022-08-26T10:47:25.407Z,6.80
2022-08-26T10:50:00.001Z,7.30
2022-08-26T10:52:40.299Z,8.00
2022-08-26T10:55:17.696Z,7.90
2022-08-26T10:57:52.931Z,7.20
2022-08-26T11:00:44.008Z,7.90
2022-08-26T11:03:29.247Z,7.27
2022-08-26T11:06:21.017Z,7.03
2022-08-26T11:08:49.998Z,7.67
2022-08-26T11:11:47.960Z,7.03
2022-08-26T11:14:46.143Z,8.57
2022-08-26T11:17:51.746Z,8.67
2022-08-26T11:20:37.035Z,6.70
2022-08-26T11:23:50.733Z,7.00
2022-08-26T11:26:36.314Z,10.87
2022-08-26T11:29:13.590Z,8.23
2022-08-26T11:31:57.157Z,8.07
2022-08-26T11:34:54.098Z,7.70
2022-08-26T11:37:33.188Z,7.70
2022-08-26T11:40:04.067Z,8.00
2022-08-26T11:42:38.772Z,8.37
2022-08-26T11:45:18.428Z,7.17
2022-08-26T11:47:49.450Z,7.53
2022-08-26T11:50:20.545Z,7.50
2022-08-26T11:53:01.743Z,8.00
2022-08-26T11:55:30.955Z,7.70
2022-08-26T11:58:02.011Z,8.30
2022-08-26T12:00:38.396Z,8.07
2022-08-26T12:03:18.970Z,7.37
2022-08-26T12:05:49.403Z,7.60
2022-08-26T12:08:21.462Z,7.60
2022-08-26T12:10:50.052Z,8.07
2022-08-26T12:13:23.239Z,7.70
2022-08-26T12:15:55.836Z,7.20
2022-08-26T12:18:29.181Z,7.07
2022-08-26T12:21:01.204Z,7.20
2022-08-26T12:23:40.791Z,7.73
2022-08-26T12:26:11.899Z,7.80
2022-08-26T12:28:45.301Z,6.87
2022-08-26T12:31:22.504Z,7.07
2022-08-26T12:33:50.894Z,8.70
2022-08-26T12:36:25.569Z,6.70
2022-08-26T12:38:58.265Z,8.17
2022-08-26T12:41:44.138Z,6.70
2022-08-26T12:44:37.629Z,7.23
2022-08-26T12:47:09.273Z,9.17
2022-08-26T12:49:38.129Z,7.60
2022-08-26T12:52:08.313Z,7.50
2022-08-26T12:55:03.425Z,8.20
2022-08-26T12:57:35.108Z,7.80
2022-08-26T13:00:34.871Z,8.70
2022-08-26T13:03:03.552Z,8.30
2022-08-26T13:05:35.043Z,7.63
2022-08-26T13:08:28.534Z,7.23
2022-08-26T13:11:10.247Z,7.30
2022-08-26T13:13:38.234Z,7.03
2022-08-26T13:16:07.270Z,6.83
2022-08-26T13:18:35.256Z,7.03
2022-08-26T13:21:10.008Z,8.30
2022-08-26T13:23:42.341Z,6.77
2022-08-26T13:26:11.922Z,7.23
2022-08-26T13:28:39.972Z,7.27
2022-08-26T13:31:07.986Z,10.80
2022-08-26T13:33:36.000Z,7.33
2022-08-26T13:36:05.793Z,7.60
2022-08-26T13:38:34.786Z,8.57
2022-08-26T13:41:04.755Z,6.27
2022-08-26T13:43:34.470Z,9.50
2022-08-26T13:46:02.851Z,6.93
2022-08-26T13:48:31.384Z,7.00
2022-08-26T13:50:59.361Z,5.93
2022-08-26T13:53:29.151Z,6.73
2022-08-26T13:55:57.212Z,6.87
2022-08-26T13:58:25.490Z,5.97
2022-08-26T14:00:54.997Z,5.97
2022-08-26T14:03:24.543Z,5.97
2022-08-26T14:05:53.349Z,5.67
2022-08-26T14:08:21.576Z,6.00
2022-08-26T14:10:50.268Z,5.40
2022-08-26T14:13:19.358Z,6.03
2022-08-26T14:15:47.963Z,8.00
2022-08-26T14:18:22.126Z,8.20
2022-08-26T14:20:52.049Z,8.80
2022-08-26T14:23:22.620Z,10.60
2022-08-26T14:25:50.777Z,8.43
2022-08-26T14:28:18.810Z,8.10
2022-08-26T14:30:53.484Z,9.70
2022-08-26T14:33:26.759Z,7.27
2022-08-26T14:36:14.665Z,7.73
2022-08-26T14:38:42.605Z,7.53
2022-08-26T14:41:11.130Z,9.23
2022-08-26T14:43:49.580Z,6.63
2022-08-26T14:46:18.817Z,6.40
2022-08-26T14:48:48.072Z,5.53
2022-08-26T14:51:16.005Z,5.90
2022-08-26T14:54:01.557Z,4.03
2022-08-26T14:56:31.705Z,4.93
2022-08-26T14:58:59.609Z,4.70
2022-08-26T15:01:30.855Z,5.17
2022-08-26T15:04:01.110Z,5.60
2022-08-26T15:06:29.468Z,3.83
2022-08-26T15:08:57.524Z,4.80
2022-08-26T15:11:25.794Z,5.07
2022-08-26T15:13:53.970Z,6.63
2022-08-26T15:16:22.588Z,6.57
2022-08-26T15:18:51.427Z,5.23
2022-08-26T15:21:21.290Z,6.33
2022-08-26T15:23:50.544Z,5.50
2022-08-26T15:26:18.886Z,6.10
2022-08-26T15:28:46.905Z,4.63
2022-08-26T15:31:14.846Z,4.33
2022-08-26T15:33:42.975Z,4.03
2022-08-26T15:36:11.595Z,4.13
2022-08-26T15:38:42.294Z,4.40
2022-08-26T15:41:11.031Z,8.13
2022-08-26T15:43:39.269Z,9.83
2022-08-26T15:46:11.839Z,7.17
2022-08-26T15:48:40.191Z,6.37
2022-08-26T15:51:08.796Z,7.03
2022-08-26T15:53:36.856Z,7.93
2022-08-26T15:56:06.553Z,9.20
2022-08-26T16:02:51.613Z,7.03
2022-08-26T16:05:19.793Z,5.27
2022-08-26T16:07:48.552Z,6.07
2022-08-26T16:10:18.519Z,7.77
2022-08-26T16:12:47.832Z,10.53
2022-08-26T16:15:15.790Z,7.60
2022-08-26T16:17:43.799Z,9.40
2022-08-26T16:20:11.953Z,7.80
2022-08-26T16:22:40.040Z,8.33
2022-08-26T16:25:08.365Z,7.50
2022-08-26T16:27:38.528Z,7.33
2022-08-26T16:30:10.173Z,7.70
2022-08-26T16:32:38.277Z,6.93
2022-08-26T16:35:07.097Z,6.70
2022-08-26T16:37:37.668Z,8.10
2022-08-26T16:40:09.830Z,7.47
2022-08-26T16:42:38.097Z,6.47
2022-08-26T16:45:08.571Z,6.83
2022-08-26T16:47:36.456Z,6.50
2022-08-26T16:50:04.990Z,8.03
2022-08-26T16:52:32.900Z,5.80
2022-08-26T16:55:00.866Z,5.37
2022-08-26T16:57:28.764Z,6.40
2022-08-26T16:59:56.675Z,5.80
2022-08-26T17:02:25.974Z,5.60
2022-08-26T17:04:54.689Z,5.57
2022-08-26T17:07:22.533Z,5.67
2022-08-26T17:09:50.525Z,4.80
2022-08-26T17:12:18.774Z,5.30
2022-08-26T17:14:48.523Z,5.20
2022-08-26T17:17:16.647Z,5.93
2022-08-26T17:19:47.031Z,6.20
2022-08-26T17:22:15.955Z,5.70
2022-08-26T17:24:43.980Z,4.50
2022-08-26T17:27:11.862Z,4.90
2022-08-26T17:29:39.809Z,4.87
2022-08-26T17:32:07.748Z,6.97
2022-08-26T17:34:35.660Z,8.07
2022-08-26T17:37:05.129Z,5.03
2022-08-26T17:39:33.020Z,5.20
2022-08-26T17:42:01.048Z,4.70
2022-08-26T17:44:29.515Z,5.40
2022-08-26T17:46:57.483Z,5.03
2022-08-26T17:49:25.429Z,4.03
2022-08-26T17:51:53.345Z,3.97
2022-08-26T17:54:22.634Z,3.73
2022-08-26T17:56:50.502Z,3.67
2022-08-26T17:59:18.517Z,3.67
2022-08-26T18:01:46.461Z,4.23
2022-08-26T18:04:14.926Z,4.30
2022-08-26T18:06:43.330Z,3.70
2022-08-26T18:09:11.538Z,3.50
2022-08-26T18:11:41.402Z,3.67
2022-08-26T18:14:09.310Z,3.57
2022-08-26T18:16:38.387Z,4.03
2022-08-26T18:19:07.095Z,4.13
2022-08-26T18:21:36.156Z,4.53
2022-08-26T18:24:04.678Z,3.77
2022-08-26T18:26:34.627Z,3.87
2022-08-26T18:29:05.031Z,3.80
2022-08-26T18:31:33.238Z,4.60
2022-08-26T18:34:03.000Z,4.50
2022-08-26T18:36:33.031Z,3.60
2022-08-26T18:39:01.145Z,3.67
2022-08-26T18:41:34.908Z,4.53
2022-08-26T18:44:04.670Z,3.70
2022-08-26T18:46:32.628Z,3.73
2022-08-26T18:49:00.560Z,4.60
2022-08-26T18:51:30.516Z,3.80
2022-08-26T18:53:59.365Z,4.30
2022-08-26T18:56:27.885Z,5.23
2022-08-26T18:58:55.781Z,5.00
2022-08-26T19:01:27.544Z,4.60
2022-08-26T19:03:56.459Z,4.70
2022-08-26T19:06:25.637Z,5.00
2022-08-26T19:08:53.892Z,4.53
2022-08-26T19:11:31.691Z,4.60
2022-08-26T19:14:07.417Z,4.97
2022-08-26T19:16:38.221Z,5.50
2022-08-26T19:19:07.173Z,6.20
2022-08-26T19:21:36.327Z,6.00
2022-08-26T19:24:06.091Z,6.37
2022-08-26T19:26:34.224Z,5.80
2022-08-26T19:29:02.417Z,5.43
2022-08-26T19:31:31.152Z,6.17
2022-08-26T19:34:00.363Z,6.33
2022-08-26T19:36:28.859Z,5.50
2022-08-26T19:38:56.883Z,5.67
2022-08-26T19:41:36.868Z,5.80
2022-08-26T19:44:09.452Z,6.57
2022-08-26T19:49:12.581Z,5.87
2022-08-26T19:51:40.466Z,5.10
2022-08-26T19:54:08.334Z,5.83
2022-08-26T19:56:36.484Z,5.63
2022-08-26T19:59:04.441Z,5.63
2022-08-26T20:01:32.372Z,6.03
2022-08-26T20:04:00.341Z,5.43
2022-08-26T20:06:29.556Z,5.77
2022-08-26T20:08:57.474Z,5.73
2022-08-26T20:11:25.733Z,6.60
2022-08-26T20:13:53.938Z,5.97
2022-08-26T20:16:21.975Z,5.43
2022-08-26T20:19:07.212Z,6.10
2022-08-26T20:21:39.112Z,8.67
2022-08-26T20:24:09.558Z,5.47
2022-08-26T20:26:43.108Z,7.97
2022-08-26T20:29:13.623Z,6.07
2022-08-26T20:31:41.842Z,7.17
2022-08-26T20:34:09.774Z,5.77
2022-08-26T20:36:40.181Z,6.77
2022-08-26T20:39:08.526Z,6.87
2022-08-26T20:41:36.507Z,6.60
2022-08-26T20:44:04.988Z,6.40
2022-08-26T20:46:47.894Z,5.47
2022-08-26T20:49:18.048Z,6.20
2022-08-26T20:51:51.928Z,7.23
2022-08-26T20:54:22.990Z,6.77
2022-08-26T20:56:53.163Z,7.30
2022-08-26T20:59:22.061Z,6.53
2022-08-26T21:01:50.732Z,7.30
2022-08-26T21:04:21.646Z,7.43
2022-08-26T21:06:52.163Z,7.30
2022-08-26T21:09:21.500Z,7.27
2022-08-26T21:11:49.722Z,6.90
2022-08-26T21:14:18.837Z,7.40
2022-08-26T21:16:47.665Z,7.57
2022-08-26T21:19:18.496Z,8.33
2022-08-26T21:21:47.512Z,7.33
2022-08-26T21:24:17.398Z,7.93
2022-08-26T21:26:45.800Z,6.70
2022-08-26T21:29:14.131Z,6.67
2022-08-26T21:31:46.437Z,7.20
2022-08-26T21:34:15.535Z,7.30
2022-08-26T21:36:43.528Z,7.30
2022-08-26T21:39:12.376Z,7.20
2022-08-26T21:41:43.096Z,7.40
2022-08-26T21:44:12.438Z,7.50
2022-08-26T21:46:40.441Z,7.23
2022-08-26T21:49:12.160Z,7.10
2022-08-26T21:51:43.821Z,8.13
2022-08-26T21:54:12.682Z,7.00
2022-08-26T21:56:45.073Z,7.33
2022-08-26T21:59:14.596Z,6.63
2022-08-26T22:01:42.564Z,6.77
2022-08-26T22:04:11.127Z,7.30
2022-08-26T22:06:43.234Z,7.40
2022-08-26T22:09:11.470Z,7.60
2022-08-26T22:11:43.174Z,6.50
2022-08-26T22:14:11.764Z,7.10
2022-08-26T22:16:39.797Z,7.87
2022-08-26T22:19:08.523Z,7.10
2022-08-26T22:21:42.142Z,7.10
2022-08-26T22:24:12.103Z,6.33
2022-08-26T22:26:40.072Z,7.73
2022-08-26T22:29:09.343Z,6.53
2022-08-26T22:31:38.787Z,7.50
2022-08-26T22:34:09.083Z,9.03
2022-08-26T22:36:43.074Z,9.27
2022-08-26T22:39:12.892Z,7.47
2022-08-26T22:41:41.185Z,7.43
2022-08-26T22:44:11.571Z,8.30
2022-08-26T22:46:40.265Z,8.20
2022-08-26T22:49:09.832Z,9.33
2022-08-26T22:51:37.881Z,12.10
2022-08-26T22:54:06.465Z,16.37
2022-08-26T22:56:34.721Z,16.53
2022-08-26T22:59:02.809Z,17.30
2022-08-26T23:01:37.844Z,19.10
2022-08-26T23:04:07.195Z,22.23
2022-08-26T23:06:37.115Z,20.17
2022-08-26T23:09:05.961Z,22.60
2022-08-26T23:11:34.303Z,21.80
2022-08-26T23:14:06.498Z,23.37
2022-08-26T23:17:12.170Z,23.90
2022-08-26T23:19:50.608Z,22.70
2022-08-26T23:22:18.523Z,22.83
2022-08-26T23:24:48.653Z,22.40
2022-08-26T23:27:16.617Z,23.50
2022-08-26T23:29:44.597Z,24.60
2022-08-26T23:32:13.838Z,23.50
2022-08-26T23:34:58.898Z,25.23
2022-08-26T23:37:29.595Z,24.50
2022-08-26T23:40:04.115Z,25.10
2022-08-26T23:42:48.638Z,24.83
2022-08-26T23:45:19.847Z,25.53
2022-08-26T23:47:57.329Z,25.50
2022-08-26T23:50:44.537Z,28.53
2022-08-26T23:53:19.242Z,24.70
2022-08-26T23:55:49.043Z,24.50
2022-08-26T23:58:18.036Z,25.60
